Details From LIMJ - Genova Sestri
To LFKC - St Catherine
Flight Number -
Tags Other
Created
Modified
Stats Distance 113 nm / 208 km
Max Altitude 0 ft / 0 m
Waypoints 3
Social Downloads 31
Likes 0
Share

Download

Looking for another format? Having issues loading an existing format? Contact us
Advertisement - Login to hide

Notes

None

Route

LIMJ MAPTB LFKC

ID Type Via Altitude (ft/m) Position (lat/lon) Dist (leg/tot) Name
O LIMJ APT - 0 / 0 44.41542 / 8.82419 - / 0 nm
MAPTB FIX - 0 / 0 42.60036 / 8.79265 109 / 109 nm
O LFKC APT - 0 / 0 42.54117 / 8.79283 3 / 112 nm

Altitude Profile

Advertisement - Login to hide

LIMJ

Details ICAO LIMJ (GOA)
Name Genova-Sestri "Cristoforo Colombo"
Region Italy
Timezone Unknown
Stats Elevation 13 ft / 4 m (AMSL)
Location 44.412000° 8.841870°
Runways 1
Magnetic Variation 2.765° E

METAR

LIMJ 150820Z 03005KT 360V080 9999 FEW040 12/03 Q1020

Decode

TAF

TAF LIMJ 150500Z 1506/1606 36010KT 9999 BKN060

Decode

Departure Runways

ID Width Length Bearing (true/mag) Surface Threshold Overrun Markings Lighting
10 148 ft / 45 m 9,576 ft / 2,919 m 105.34° / 102.58° ASPHALT 0 ft / 0 m 197 ft / 60 m PREC-APP CENTERLINE EDGE THRESHOLD REIL-OMNI
28 148 ft / 45 m 9,576 ft / 2,919 m 285.37° / 282.60° ASPHALT 535 ft / 163 m 0 ft / 0 m PREC-APP CENTERLINE EDGE THRESHOLD SALS REIL-OMNI

LFKC

Details ICAO LFKC (CLY)
Name St Catherine
Region France
Timezone Europe/Paris (UTC+2.0)
Stats Elevation 208 ft / 63 m (AMSL)
Location 42.530800° 8.792980°
Runways 1
Magnetic Variation 2.704° E

METAR

LFKC 150830Z AUTO VRB02KT 9999 FEW074 BKN086 14/07 Q1019 TEMPO FEW035TCU

Decode

TAF

TAF LFKC 150800Z 1509/1609 34010KT 9999 BKN080 TX16/1512Z TN05/1603Z TEMPO 1509/1515 FEW035TCU BECMG 1517/1519 VRB03KT

Decode

Destination Runways

ID Width Length Bearing (true/mag) Surface Threshold Overrun Markings Lighting
18 131 ft / 40 m 7,586 ft / 2,312 m 179.81° / 177.11° CONCRETE 0 ft / 0 m 0 ft / 0 m APP CENTERLINE EDGE THRESHOLD
36 131 ft / 40 m 7,586 ft / 2,312 m 359.81° / 357.11° CONCRETE 663 ft / 202 m 0 ft / 0 m APP CENTERLINE EDGE THRESHOLD ALSF-I

Approach Navaids

Runway Type Ident Frequency Range Bearing (true/mag) Slope Elevation
18 DME CLI 109.50 MHz 18 nm / 33 km - - 230 ft / 70 m (AMSL)
18 LOC-LOC CLI 109.50 MHz 18 nm / 33 km 179.81° / 177.11 ° - 208 ft / 63 m (AMSL)

Popular Alternatives